createdAt,value
2022-08-05T00:00:30.178Z,2.22
2022-08-05T00:02:31.785Z,2.00
2022-08-05T00:04:33.440Z,2.50
2022-08-05T00:06:35.916Z,1.95
2022-08-05T00:08:38.295Z,2.30
2022-08-05T00:10:39.886Z,2.08
2022-08-05T00:12:56.466Z,2.38
2022-08-05T00:14:58.653Z,1.95
2022-08-05T00:17:01.907Z,2.13
2022-08-05T00:19:05.196Z,2.20
2022-08-05T00:21:08.359Z,1.88
2022-08-05T00:23:12.968Z,2.13
2022-08-05T00:25:14.863Z,2.50
2022-08-05T00:27:18.110Z,2.30
2022-08-05T00:29:25.703Z,2.20
2022-08-05T00:31:53.046Z,2.83
2022-08-05T00:34:56.202Z,2.40
2022-08-05T00:36:16.415Z,2.13
2022-08-05T00:38:33.984Z,2.30
2022-08-05T00:40:51.950Z,2.47
2022-08-05T00:42:56.610Z,2.30
2022-08-05T00:44:59.321Z,2.47
2022-08-05T00:47:02.129Z,2.40
2022-08-05T00:49:05.922Z,2.55
2022-08-05T00:51:50.914Z,1.98
2022-08-05T00:54:01.325Z,2.53
2022-08-05T00:55:52.937Z,2.17
2022-08-05T00:57:58.594Z,2.55
2022-08-05T01:00:00.734Z,2.72
2022-08-05T01:02:02.341Z,2.60
2022-08-05T01:04:04.107Z,2.28
2022-08-05T01:06:15.628Z,2.60
2022-08-05T01:08:40.529Z,2.50
2022-08-05T01:10:52.177Z,2.63
2022-08-05T01:13:05.180Z,2.30
2022-08-05T01:15:36.249Z,2.35
2022-08-05T01:17:45.248Z,2.13
2022-08-05T01:20:13.933Z,2.38
2022-08-05T01:22:18.809Z,2.58
2022-08-05T01:24:50.824Z,2.42
2022-08-05T01:26:52.580Z,2.42
2022-08-05T01:29:00.630Z,2.30
2022-08-05T01:31:14.991Z,2.58
2022-08-05T01:33:19.707Z,2.28
2022-08-05T01:35:51.153Z,2.33
2022-08-05T01:37:56.666Z,2.40
2022-08-05T01:40:05.468Z,2.42
2022-08-05T01:42:12.524Z,2.78
2022-08-05T01:44:16.328Z,2.45
2022-08-05T01:46:42.579Z,2.28
2022-08-05T01:48:45.793Z,2.30
2022-08-05T01:50:52.592Z,2.22
2022-08-05T01:52:57.727Z,2.20
2022-08-05T01:55:04.636Z,2.50
2022-08-05T01:58:10.723Z,2.47
2022-08-05T01:59:34.014Z,2.60
2022-08-05T02:01:39.929Z,2.63
2022-08-05T02:03:46.605Z,2.50
2022-08-05T02:05:50.581Z,2.78
2022-08-05T02:08:01.378Z,2.85
2022-08-05T02:10:05.674Z,2.35
2022-08-05T02:12:15.072Z,2.40
2022-08-05T02:14:24.272Z,2.55
2022-08-05T02:16:32.983Z,2.67
2022-08-05T02:18:44.745Z,2.13
2022-08-05T02:20:58.865Z,2.85
2022-08-05T02:23:05.712Z,2.53
2022-08-05T02:25:24.781Z,2.38
2022-08-05T02:27:30.129Z,2.45
2022-08-05T02:29:58.883Z,2.55
2022-08-05T02:32:04.626Z,2.80
2022-08-05T02:34:14.070Z,2.20
2022-08-05T02:36:19.242Z,2.88
2022-08-05T02:38:21.629Z,2.55
2022-08-05T02:40:29.592Z,2.50
2022-08-05T02:42:36.114Z,2.50
2022-08-05T02:44:39.502Z,2.53
2022-08-05T02:46:53.447Z,2.70
2022-08-05T02:49:02.654Z,2.47
2022-08-05T02:51:05.642Z,2.78
2022-08-05T02:53:07.386Z,2.70
2022-08-05T02:55:14.423Z,3.03
2022-08-05T02:58:12.348Z,2.75
2022-08-05T02:59:47.915Z,2.58
2022-08-05T03:01:58.173Z,2.70
2022-08-05T03:04:11.982Z,2.95
2022-08-05T03:06:53.704Z,2.38
2022-08-05T03:08:42.596Z,2.70
2022-08-05T03:11:53.759Z,2.38
2022-08-05T03:13:16.851Z,2.47
2022-08-05T03:15:20.143Z,2.60
2022-08-05T03:17:22.081Z,2.60
2022-08-05T03:19:34.470Z,2.60
2022-08-05T03:21:41.686Z,3.38
2022-08-05T03:23:51.363Z,2.60
2022-08-05T03:26:04.614Z,2.92
2022-08-05T03:28:18.680Z,4.20
2022-08-05T03:30:28.672Z,3.92
2022-08-05T03:32:35.999Z,3.35
2022-08-05T03:34:38.550Z,3.10
2022-08-05T03:36:41.481Z,3.45
2022-08-05T03:38:43.264Z,2.88
2022-08-05T03:40:55.506Z,3.28
2022-08-05T03:43:01.349Z,3.45
2022-08-05T03:45:21.619Z,3.05
2022-08-05T03:47:24.401Z,2.60
2022-08-05T03:49:31.134Z,3.05
2022-08-05T03:52:38.381Z,2.80
2022-08-05T03:55:51.169Z,2.42
2022-08-05T03:57:00.103Z,2.72
2022-08-05T03:59:06.406Z,2.88
2022-08-05T04:01:11.246Z,3.17
2022-08-05T04:03:28.879Z,3.33
2022-08-05T04:05:34.636Z,3.03
2022-08-05T04:07:58.295Z,3.80
2022-08-05T04:10:02.874Z,4.35
2022-08-05T04:12:05.351Z,3.00
2022-08-05T04:14:30.462Z,2.97
2022-08-05T04:16:33.600Z,2.95
2022-08-05T04:18:36.234Z,2.90
2022-08-05T04:20:37.903Z,2.63
2022-08-05T04:22:42.844Z,2.92
2022-08-05T04:24:52.952Z,2.80
2022-08-05T04:26:54.799Z,2.70
2022-08-05T04:29:00.784Z,2.58
2022-08-05T04:31:10.623Z,2.58
2022-08-05T04:33:13.155Z,2.50
2022-08-05T04:35:17.768Z,2.85
2022-08-05T04:37:21.714Z,2.50
2022-08-05T04:39:43.112Z,2.35
2022-08-05T04:41:45.640Z,2.20
2022-08-05T04:43:52.035Z,2.10
2022-08-05T04:45:55.739Z,2.38
2022-08-05T04:48:10.277Z,2.10
2022-08-05T04:50:37.309Z,2.72
2022-08-05T04:52:39.328Z,2.30
2022-08-05T04:54:41.391Z,2.60
2022-08-05T04:56:43.608Z,1.98
2022-08-05T04:58:45.392Z,2.22
2022-08-05T05:00:47.563Z,2.45
2022-08-05T05:02:52.650Z,2.33
2022-08-05T05:05:02.334Z,2.25
2022-08-05T05:07:05.212Z,1.88
2022-08-05T05:09:17.696Z,2.65
2022-08-05T05:11:20.137Z,2.50
2022-08-05T05:13:22.713Z,2.28
2022-08-05T05:15:56.422Z,2.50
2022-08-05T05:17:56.460Z,2.28
2022-08-05T05:19:59.247Z,2.25
2022-08-05T05:22:03.629Z,2.22
2022-08-05T05:24:23.489Z,2.00
2022-08-05T05:26:46.483Z,2.15
2022-08-05T05:28:49.769Z,2.30
2022-08-05T05:30:51.617Z,2.00
2022-08-05T05:32:53.327Z,2.20
2022-08-05T05:34:55.093Z,2.47
2022-08-05T05:36:56.678Z,2.00
2022-08-05T05:38:58.765Z,2.22
2022-08-05T05:41:00.618Z,2.13
2022-08-05T05:43:03.343Z,2.50
2022-08-05T05:45:05.460Z,2.20
2022-08-05T05:47:13.299Z,2.13
2022-08-05T05:49:23.338Z,2.35
2022-08-05T05:51:27.956Z,1.92
2022-08-05T05:53:29.809Z,2.60
2022-08-05T05:55:51.981Z,2.05
2022-08-05T05:58:02.754Z,2.10
2022-08-05T06:00:08.956Z,2.55
2022-08-05T06:02:11.816Z,1.88
2022-08-05T06:04:14.534Z,2.00
2022-08-05T06:06:16.360Z,1.80
2022-08-05T06:08:32.301Z,1.80
2022-08-05T06:10:37.439Z,2.15
2022-08-05T06:12:50.636Z,2.10
2022-08-05T06:14:52.226Z,2.10
2022-08-05T06:16:55.666Z,2.20
2022-08-05T06:19:01.181Z,2.05
2022-08-05T06:21:04.570Z,2.10
2022-08-05T06:23:09.716Z,2.00
2022-08-05T06:25:25.063Z,2.00
2022-08-05T06:28:10.931Z,2.38
2022-08-05T06:30:05.907Z,2.10
2022-08-05T06:32:26.434Z,1.65
2022-08-05T06:34:30.666Z,2.10
2022-08-05T06:36:37.283Z,2.30
2022-08-05T06:38:54.804Z,2.17
2022-08-05T06:40:57.119Z,2.00
2022-08-05T06:43:01.355Z,1.70
2022-08-05T06:45:08.358Z,2.00
2022-08-05T06:47:29.914Z,2.38
2022-08-05T06:50:00.424Z,1.85
2022-08-05T06:51:53.912Z,1.90
2022-08-05T06:53:57.308Z,2.28
2022-08-05T06:56:03.309Z,2.30
2022-08-05T06:58:20.285Z,2.47
2022-08-05T07:00:26.808Z,2.10
2022-08-05T07:02:31.426Z,2.50
2022-08-05T07:04:33.070Z,2.33
2022-08-05T07:06:34.938Z,2.30
2022-08-05T07:08:36.507Z,1.98
2022-08-05T07:10:39.263Z,2.20
2022-08-05T07:13:13.437Z,2.20
2022-08-05T07:15:34.433Z,1.90
2022-08-05T07:17:59.255Z,1.98
2022-08-05T07:22:30.239Z,1.90
2022-08-05T07:24:32.082Z,2.03
2022-08-05T07:26:46.545Z,2.28
2022-08-05T07:28:48.779Z,2.15
2022-08-05T07:30:52.906Z,2.30
2022-08-05T07:32:57.399Z,2.10
2022-08-05T07:34:59.100Z,2.22
2022-08-05T07:37:00.714Z,2.17
2022-08-05T07:39:05.194Z,2.15
2022-08-05T07:42:06.798Z,2.10
2022-08-05T07:43:31.551Z,2.30
2022-08-05T07:45:57.700Z,2.00
2022-08-05T07:47:58.620Z,2.05
2022-08-05T07:50:00.536Z,2.10
2022-08-05T07:52:08.328Z,2.30
2022-08-05T07:54:11.523Z,2.30
2022-08-05T07:57:00.441Z,2.00
2022-08-05T07:58:57.553Z,2.10
2022-08-05T08:00:57.663Z,2.55
2022-08-05T08:03:14.025Z,2.50
2022-08-05T08:05:17.597Z,2.20
2022-08-05T08:07:22.841Z,2.20
2022-08-05T08:09:25.274Z,2.13
2022-08-05T08:11:48.288Z,2.25
2022-08-05T08:14:00.627Z,2.28
2022-08-05T08:16:49.880Z,2.17
2022-08-05T08:18:24.447Z,2.22
2022-08-05T08:21:00.568Z,2.33
2022-08-05T08:23:03.352Z,2.13
2022-08-05T08:25:16.643Z,2.40
2022-08-05T08:27:19.557Z,1.77
2022-08-05T08:30:03.852Z,2.17
2022-08-05T08:31:43.120Z,2.55
2022-08-05T08:33:45.388Z,2.10
2022-08-05T08:35:52.462Z,1.80
2022-08-05T08:37:56.364Z,1.85
2022-08-05T08:39:58.162Z,2.25
2022-08-05T08:42:02.252Z,1.90
2022-08-05T08:45:20.551Z,1.92
2022-08-05T08:46:32.212Z,1.70
2022-08-05T08:49:02.462Z,1.90
2022-08-05T08:51:03.225Z,1.80
2022-08-05T08:53:12.588Z,1.85
2022-08-05T08:55:19.303Z,1.80
2022-08-05T08:57:41.994Z,1.52
2022-08-05T08:59:50.082Z,1.65
2022-08-05T09:01:57.549Z,1.70
2022-08-05T09:04:02.981Z,1.58
2022-08-05T09:06:08.949Z,1.95
2022-08-05T09:08:13.114Z,2.13
2022-08-05T09:10:16.759Z,1.90
2022-08-05T09:12:27.325Z,1.67
2022-08-05T09:14:56.576Z,1.80
2022-08-05T09:16:54.237Z,1.98
2022-08-05T09:18:56.107Z,1.70
2022-08-05T09:21:01.019Z,2.10
2022-08-05T09:23:05.457Z,1.83
2022-08-05T09:25:13.993Z,2.35
2022-08-05T09:28:06.029Z,1.80
2022-08-05T09:30:04.638Z,2.15
2022-08-05T09:32:42.934Z,1.70
2022-08-05T09:34:55.422Z,1.70
2022-08-05T09:36:59.327Z,1.90
2022-08-05T09:39:18.215Z,2.10
2022-08-05T09:41:24.075Z,1.95
2022-08-05T09:43:41.766Z,2.13
2022-08-05T09:46:07.082Z,1.90
2022-08-05T09:48:31.458Z,1.92
2022-08-05T09:50:44.392Z,1.83
2022-08-05T09:52:48.392Z,2.05
2022-08-05T09:55:59.056Z,2.28
2022-08-05T09:57:47.678Z,2.20
2022-08-05T09:59:49.259Z,2.05
2022-08-05T10:01:57.901Z,1.80
2022-08-05T10:04:10.527Z,2.05
2022-08-05T10:06:14.814Z,1.80
2022-08-05T10:08:37.666Z,2.22
2022-08-05T10:10:50.192Z,2.03
2022-08-05T10:12:58.768Z,2.17
2022-08-05T10:15:17.058Z,2.00
2022-08-05T10:17:37.340Z,2.13
2022-08-05T10:20:04.432Z,2.25
2022-08-05T10:22:02.751Z,2.15
2022-08-05T10:24:10.702Z,1.85
2022-08-05T10:26:14.552Z,2.22
2022-08-05T10:28:29.336Z,2.08
2022-08-05T10:32:47.510Z,1.80
2022-08-05T10:33:02.502Z,1.98
2022-08-05T10:35:04.748Z,2.10
2022-08-05T10:37:07.302Z,2.20
2022-08-05T10:39:24.435Z,2.28
2022-08-05T10:41:47.425Z,2.20
2022-08-05T10:43:54.762Z,2.17
2022-08-05T10:46:06.169Z,2.10
2022-08-05T10:48:57.027Z,2.03
2022-08-05T10:51:04.868Z,1.63
2022-08-05T10:53:34.510Z,1.88
2022-08-05T10:56:05.115Z,1.92
2022-08-05T10:58:17.961Z,1.95
2022-08-05T11:03:26.959Z,2.22
2022-08-05T11:05:31.605Z,2.03
2022-08-05T11:08:02.378Z,2.00
2022-08-05T11:10:04.044Z,2.40
2022-08-05T11:12:54.459Z,2.40
2022-08-05T11:15:20.343Z,1.83
2022-08-05T11:17:57.418Z,2.20
2022-08-05T11:20:17.004Z,1.98
2022-08-05T11:22:49.734Z,1.85
2022-08-05T11:26:05.500Z,2.00
2022-08-05T11:28:00.777Z,2.60
2022-08-05T11:30:02.684Z,2.10
2022-08-05T11:32:24.439Z,1.83
2022-08-05T11:34:51.575Z,2.20
2022-08-05T11:36:54.029Z,1.90
2022-08-05T11:38:57.771Z,2.35
2022-08-05T11:41:34.545Z,1.92
2022-08-05T11:44:06.729Z,2.15
2022-08-05T11:46:27.322Z,2.35
2022-08-05T11:48:11.715Z,2.00
2022-08-05T11:50:14.253Z,1.88
2022-08-05T11:52:29.183Z,2.40
2022-08-05T11:54:38.067Z,1.75
2022-08-05T11:56:52.234Z,1.92
2022-08-05T11:58:53.925Z,2.10
2022-08-05T12:01:03.671Z,1.95
2022-08-05T12:03:28.903Z,1.98
2022-08-05T12:05:39.698Z,1.95
2022-08-05T12:08:08.074Z,2.67
2022-08-05T12:10:09.643Z,1.77
2022-08-05T12:12:13.132Z,1.90
2022-08-05T12:14:14.934Z,1.90
2022-08-05T12:16:19.655Z,2.08
2022-08-05T12:18:38.924Z,2.20
2022-08-05T12:20:41.447Z,2.10
2022-08-05T12:22:43.196Z,1.83
2022-08-05T12:24:51.747Z,1.80
2022-08-05T12:26:56.845Z,2.10
2022-08-05T12:28:58.522Z,2.03
2022-08-05T12:31:02.291Z,1.95
2022-08-05T12:33:07.403Z,2.20
2022-08-05T12:35:37.126Z,2.53
2022-08-05T12:37:42.922Z,2.45
2022-08-05T12:39:51.095Z,2.40
2022-08-05T12:41:59.074Z,2.15
2022-08-05T12:44:28.553Z,2.38
2022-08-05T12:46:38.294Z,2.20
2022-08-05T12:48:43.047Z,2.35
2022-08-05T12:52:11.091Z,2.60
2022-08-05T12:53:41.870Z,2.10
2022-08-05T12:55:43.559Z,2.08
2022-08-05T12:58:50.262Z,2.40
2022-08-05T13:02:03.965Z,2.10
2022-08-05T13:02:42.236Z,2.33
2022-08-05T13:04:54.424Z,1.98
2022-08-05T13:06:58.599Z,2.38
2022-08-05T13:09:08.664Z,2.47
2022-08-05T13:11:17.532Z,2.35
2022-08-05T13:14:05.756Z,2.35
2022-08-05T13:16:01.607Z,2.47
2022-08-05T13:18:04.656Z,2.83
2022-08-05T13:20:24.642Z,2.40
2022-08-05T13:22:29.812Z,2.80
2022-08-05T13:24:51.137Z,2.47
2022-08-05T13:26:53.344Z,2.70
2022-08-05T13:28:54.976Z,3.20
2022-08-05T13:30:57.263Z,3.17
2022-08-05T13:33:01.285Z,2.97
2022-08-05T13:35:04.350Z,2.72
2022-08-05T13:37:07.313Z,3.13
2022-08-05T13:40:13.704Z,2.72
2022-08-05T13:41:37.368Z,3.13
2022-08-05T13:43:45.722Z,3.38
2022-08-05T13:45:57.054Z,3.22
2022-08-05T13:48:08.640Z,3.42
2022-08-05T13:50:16.558Z,3.40
2022-08-05T13:52:29.106Z,3.10
2022-08-05T13:54:31.087Z,3.10
2022-08-05T13:56:33.000Z,2.97
2022-08-05T13:58:35.304Z,3.28
2022-08-05T14:00:41.663Z,2.72
2022-08-05T14:02:43.320Z,4.15
2022-08-05T14:05:05.321Z,4.97
2022-08-05T14:07:25.543Z,3.45
2022-08-05T14:09:35.148Z,3.40
2022-08-05T14:12:04.216Z,2.95
2022-08-05T14:14:09.305Z,5.35
2022-08-05T14:16:11.478Z,3.45
2022-08-05T14:18:17.391Z,3.22
2022-08-05T14:20:20.582Z,4.13
2022-08-05T14:22:30.446Z,3.30
2022-08-05T14:24:37.715Z,3.00
2022-08-05T14:26:56.572Z,2.78
2022-08-05T14:29:03.763Z,3.17
2022-08-05T14:31:05.571Z,3.35
2022-08-05T14:33:23.091Z,3.55
2022-08-05T14:35:36.946Z,2.95
2022-08-05T14:37:52.162Z,3.15
2022-08-05T14:39:59.018Z,2.80
2022-08-05T14:42:19.351Z,3.75
2022-08-05T14:44:22.789Z,3.15
2022-08-05T14:46:28.108Z,3.22
2022-08-05T14:48:33.880Z,3.00
2022-08-05T14:50:39.844Z,2.90
2022-08-05T14:52:52.515Z,3.30
2022-08-05T14:54:54.942Z,3.45
2022-08-05T14:56:57.254Z,3.78
2022-08-05T14:58:58.922Z,3.35
2022-08-05T15:01:01.623Z,3.38
2022-08-05T15:03:05.789Z,4.20
2022-08-05T15:05:13.384Z,3.08
2022-08-05T15:08:12.107Z,3.40
2022-08-05T15:09:52.223Z,3.35
2022-08-05T15:11:57.918Z,3.67
2022-08-05T15:13:59.524Z,3.25
2022-08-05T15:16:02.116Z,3.15
2022-08-05T15:18:05.799Z,3.47
2022-08-05T15:20:18.217Z,3.20
2022-08-05T15:22:21.049Z,3.15
2022-08-05T15:24:23.148Z,3.03
2022-08-05T15:26:32.234Z,3.20
2022-08-05T15:28:34.276Z,2.85
2022-08-05T15:30:36.957Z,3.05
2022-08-05T15:32:40.010Z,4.10
2022-08-05T15:34:42.123Z,13.32
2022-08-05T15:36:43.759Z,23.27
2022-08-05T15:38:46.466Z,31.80
2022-08-05T15:41:04.440Z,6.47
2022-08-05T15:43:20.462Z,14.55
2022-08-05T15:45:37.876Z,4.05
2022-08-05T15:47:41.736Z,3.40
2022-08-05T15:49:56.821Z,3.35
2022-08-05T15:52:12.871Z,3.83
2022-08-05T15:54:15.974Z,2.92
2022-08-05T15:56:18.287Z,3.03
2022-08-05T15:58:20.413Z,2.88
2022-08-05T16:00:26.351Z,2.45
2022-08-05T16:02:45.441Z,2.42
2022-08-05T16:04:49.202Z,2.40
2022-08-05T16:06:50.812Z,2.60
2022-08-05T16:08:53.638Z,2.20
2022-08-05T16:10:57.143Z,2.45
2022-08-05T16:12:58.820Z,3.70
2022-08-05T16:15:01.983Z,2.65
2022-08-05T16:17:03.831Z,2.38
2022-08-05T16:19:06.345Z,2.20
2022-08-05T16:21:11.300Z,2.65
2022-08-05T16:23:15.278Z,2.40
2022-08-05T16:25:17.020Z,2.42
2022-08-05T16:27:18.691Z,2.20
2022-08-05T16:29:21.740Z,2.30
2022-08-05T16:31:24.203Z,2.10
2022-08-05T16:33:28.655Z,2.38
2022-08-05T16:35:45.248Z,2.03
2022-08-05T16:38:15.095Z,2.60
2022-08-05T16:40:24.798Z,2.10
2022-08-05T16:42:28.651Z,2.30
2022-08-05T16:44:30.450Z,2.60
2022-08-05T16:46:32.233Z,2.10
2022-08-05T16:48:35.569Z,2.17
2022-08-05T16:50:37.513Z,2.50
2022-08-05T16:52:39.170Z,4.40
2022-08-05T16:54:47.863Z,5.00
2022-08-05T16:56:52.281Z,5.53
2022-08-05T16:58:54.041Z,5.70
2022-08-05T17:00:55.689Z,5.47
2022-08-05T17:02:57.440Z,6.25
2022-08-05T17:04:59.824Z,5.32
2022-08-05T17:07:03.272Z,6.35
2022-08-05T17:09:12.694Z,5.72
2022-08-05T17:11:16.730Z,6.28
2022-08-05T17:13:21.308Z,5.75
2022-08-05T17:15:49.047Z,5.65
2022-08-05T17:17:55.421Z,5.43
2022-08-05T17:19:57.145Z,5.88
2022-08-05T17:21:58.849Z,5.50
2022-08-05T17:24:04.710Z,5.53
2022-08-05T17:26:09.795Z,5.70
2022-08-05T17:28:15.529Z,5.07
2022-08-05T17:30:19.041Z,5.00
2022-08-05T17:32:30.050Z,5.22
2022-08-05T17:34:34.915Z,4.95
2022-08-05T17:36:40.572Z,5.35
2022-08-05T17:38:42.443Z,5.00
2022-08-05T17:40:44.330Z,4.85
2022-08-05T17:42:50.514Z,4.35
2022-08-05T17:44:53.294Z,4.15
2022-08-05T17:46:54.868Z,4.30
2022-08-05T17:48:56.528Z,3.60
2022-08-05T17:50:59.689Z,3.58
2022-08-05T17:53:04.978Z,3.60
2022-08-05T17:55:07.907Z,2.90
2022-08-05T17:57:12.411Z,3.50
2022-08-05T17:59:14.139Z,3.67
2022-08-05T18:01:23.089Z,3.13
2022-08-05T18:03:59.053Z,3.70
2022-08-05T18:05:53.049Z,2.92
2022-08-05T18:07:56.872Z,3.45
2022-08-05T18:10:02.093Z,3.13
2022-08-05T18:12:11.845Z,3.28
2022-08-05T18:14:20.512Z,3.55
2022-08-05T18:16:22.496Z,3.50
2022-08-05T18:18:26.935Z,3.30
2022-08-05T18:20:31.931Z,3.60
2022-08-05T18:22:36.290Z,3.83
2022-08-05T18:24:47.940Z,3.75
2022-08-05T18:26:49.852Z,4.07
2022-08-05T18:28:52.637Z,4.70
2022-08-05T18:30:54.315Z,4.32
2022-08-05T18:33:00.435Z,4.22
2022-08-05T18:35:02.866Z,3.85
2022-08-05T18:37:12.309Z,3.88
2022-08-05T18:39:42.528Z,3.47
2022-08-05T18:41:57.092Z,3.58
2022-08-05T18:43:57.957Z,3.75
2022-08-05T18:46:09.723Z,3.03
2022-08-05T18:48:17.379Z,2.85
2022-08-05T18:50:51.580Z,2.78
2022-08-05T18:52:54.505Z,2.60
2022-08-05T18:54:56.221Z,2.70
2022-08-05T18:56:58.124Z,2.38
2022-08-05T18:59:03.009Z,2.70
2022-08-05T19:01:47.195Z,2.45
2022-08-05T19:03:55.382Z,2.75
2022-08-05T19:06:12.177Z,2.30
2022-08-05T19:08:21.668Z,2.20
2022-08-05T19:10:28.434Z,2.50
2022-08-05T19:12:33.612Z,1.95
2022-08-05T19:14:53.227Z,2.05
2022-08-05T19:16:57.147Z,2.17
2022-08-05T19:18:58.757Z,1.92
2022-08-05T19:21:00.417Z,2.30
2022-08-05T19:23:02.014Z,2.10
2022-08-05T19:25:10.709Z,1.95
2022-08-05T19:27:30.222Z,2.25
2022-08-05T19:29:35.938Z,2.03
2022-08-05T19:31:44.742Z,2.05
2022-08-05T19:33:56.374Z,1.90
2022-08-05T19:35:58.581Z,2.00
2022-08-05T19:38:06.436Z,2.15
2022-08-05T19:40:10.638Z,1.95
2022-08-05T19:42:13.578Z,2.05
2022-08-05T19:44:18.667Z,2.28
2022-08-05T19:46:30.004Z,1.85
2022-08-05T19:48:32.434Z,1.70
2022-08-05T19:50:36.715Z,1.92
2022-08-05T19:52:39.918Z,2.15
2022-08-05T19:54:41.885Z,1.60
2022-08-05T19:56:43.597Z,1.73
2022-08-05T19:58:53.852Z,1.98
2022-08-05T20:00:57.794Z,1.90
2022-08-05T20:02:59.451Z,1.77
2022-08-05T20:05:01.124Z,1.90
2022-08-05T20:07:12.988Z,1.90
2022-08-05T20:09:15.117Z,1.70
2022-08-05T20:11:20.281Z,1.90
2022-08-05T20:13:55.059Z,1.50
2022-08-05T20:15:52.576Z,1.70
2022-08-05T20:18:01.155Z,1.77
2022-08-05T20:20:07.571Z,1.77
2022-08-05T20:22:12.160Z,1.80
2022-08-05T20:24:14.515Z,1.95
2022-08-05T20:26:23.306Z,1.67
2022-08-05T20:28:25.623Z,1.70
2022-08-05T20:30:30.269Z,1.50
2022-08-05T20:32:31.972Z,1.70
2022-08-05T20:34:34.939Z,1.40
2022-08-05T20:36:39.060Z,1.70
2022-08-05T20:38:54.598Z,1.50
2022-08-05T20:40:59.861Z,1.70
2022-08-05T20:43:06.368Z,1.60
2022-08-05T20:45:08.750Z,1.48
2022-08-05T20:47:10.439Z,1.60
2022-08-05T20:49:12.450Z,1.50
2022-08-05T20:51:15.650Z,1.52
2022-08-05T20:53:36.961Z,1.42
2022-08-05T20:55:56.730Z,1.40
2022-08-05T20:58:00.637Z,1.52
2022-08-05T21:00:20.011Z,1.30
2022-08-05T21:02:26.874Z,1.45
2022-08-05T21:04:30.349Z,1.92
2022-08-05T21:06:32.050Z,1.80
2022-08-05T21:08:42.072Z,1.60
2022-08-05T21:10:48.955Z,1.30
2022-08-05T21:12:55.499Z,1.85
2022-08-05T21:15:00.089Z,1.65
2022-08-05T21:17:01.772Z,1.70
2022-08-05T21:19:04.781Z,1.38
2022-08-05T21:21:06.597Z,1.70
2022-08-05T21:23:08.432Z,1.67
2022-08-05T21:25:12.213Z,1.70
2022-08-05T21:27:13.801Z,1.52
2022-08-05T21:29:16.764Z,1.45
2022-08-05T21:31:19.486Z,1.50
2022-08-05T21:33:22.396Z,1.35
2022-08-05T21:35:29.723Z,1.70
2022-08-05T21:37:32.233Z,1.30
2022-08-05T21:39:35.063Z,1.90
2022-08-05T21:41:42.446Z,1.30
2022-08-05T21:44:03.870Z,1.38
2022-08-05T21:46:05.832Z,1.30
2022-08-05T21:48:08.878Z,1.25
2022-08-05T21:50:10.838Z,1.65
2022-08-05T21:52:22.302Z,1.40
2022-08-05T21:54:30.757Z,1.23
2022-08-05T21:56:32.774Z,2.15
2022-08-05T21:58:35.119Z,1.65
2022-08-05T22:00:38.763Z,1.77
2022-08-05T22:02:42.858Z,1.38
2022-08-05T22:04:45.329Z,1.50
2022-08-05T22:06:50.419Z,1.73
2022-08-05T22:08:52.593Z,1.42
2022-08-05T22:10:54.334Z,1.73
2022-08-05T22:14:04.976Z,1.70
2022-08-05T22:16:02.492Z,2.10
2022-08-05T22:17:48.540Z,1.60
2022-08-05T22:20:03.433Z,1.80
2022-08-05T22:22:16.054Z,1.50
2022-08-05T22:24:40.373Z,1.63
2022-08-05T22:27:17.303Z,1.73
2022-08-05T22:29:26.603Z,1.75
2022-08-05T22:31:44.407Z,1.75
2022-08-05T22:33:57.050Z,1.83
2022-08-05T22:36:02.154Z,1.67
2022-08-05T22:38:05.299Z,1.63
2022-08-05T22:40:07.877Z,1.70
2022-08-05T22:42:15.462Z,2.15
2022-08-05T22:44:27.545Z,1.60
2022-08-05T22:46:30.489Z,2.10
2022-08-05T22:48:32.345Z,1.65
2022-08-05T22:50:34.492Z,1.65
2022-08-05T22:52:37.597Z,1.92
2022-08-05T22:54:39.494Z,1.80
2022-08-05T22:56:48.309Z,2.13
2022-08-05T22:58:51.879Z,2.00
2022-08-05T23:00:57.151Z,1.70
2022-08-05T23:02:58.875Z,1.80
2022-08-05T23:05:02.076Z,1.80
2022-08-05T23:07:07.212Z,2.00
2022-08-05T23:09:27.212Z,2.08
2022-08-05T23:11:30.432Z,1.70
2022-08-05T23:13:32.443Z,1.60
2022-08-05T23:15:36.466Z,1.90
2022-08-05T23:17:59.868Z,1.90
2022-08-05T23:20:01.094Z,1.75
2022-08-05T23:22:04.187Z,1.90
2022-08-05T23:24:11.423Z,1.63
2022-08-05T23:26:13.343Z,1.73
2022-08-05T23:28:17.288Z,2.20
2022-08-05T23:30:19.049Z,1.65
2022-08-05T23:32:29.011Z,2.10
2022-08-05T23:34:30.875Z,1.85
2022-08-05T23:36:39.803Z,1.50
2022-08-05T23:38:46.137Z,2.00
2022-08-05T23:40:49.879Z,2.13
2022-08-05T23:42:53.703Z,1.75
2022-08-05T23:44:55.552Z,1.67
2022-08-05T23:46:59.864Z,1.90
2022-08-05T23:49:16.756Z,2.20
2022-08-05T23:51:19.776Z,2.13
2022-08-05T23:53:23.220Z,1.92
2022-08-05T23:55:31.090Z,1.67
2022-08-05T23:57:33.521Z,1.67
